Weather at Spalding Airport

Public forecast

Using degrees Fahrenheit for public forecast. Weather courtesy of forecast.io.

Closest aviation weather report (METAR) to Spalding Airport

Closest report is Susanville Municipal Airport, 18.7 nm (34.7 km) SSE.

2022/11/26 19:35 (retrieved 31 minutes ago)

KSVE 261935Z AUTO 04004KT 8SM FEW036 09/00 A3027 RMK AO2

Closest aviation forecast (TAF) to Spalding Airport

Closest forecast is Redding Municipal Airport, 70.0 nm (129.7 km) W.

2022/11/26 18:21 Ammendment (retrieved 2 hours ago)

TAF AMD KRDD 261818Z 2618/2718 36010G19KT P6SM SKC FM270100 33004KT P6SM SKC